sensor_id;sensor_type;location;lat;lon;timestamp;P1;durP1;ratioP1;P2;durP2;ratioP2
22046;SDS011;11187;49.412;20.956;2023-01-26T00:00:40;17.88;;;16.08;;
22046;SDS011;11187;49.412;20.956;2023-01-26T00:03:13;17.35;;;15.30;;
22046;SDS011;11187;49.412;20.956;2023-01-26T00:06:04;15.95;;;14.27;;
22046;SDS011;11187;49.412;20.956;2023-01-26T00:08:39;16.30;;;14.70;;
22046;SDS011;11187;49.412;20.956;2023-01-26T00:11:27;17.90;;;16.08;;
22046;SDS011;11187;49.412;20.956;2023-01-26T00:14:01;18.00;;;15.38;;
22046;SDS011;11187;49.412;20.956;2023-01-26T00:16:48;16.73;;;14.93;;
22046;SDS011;11187;49.412;20.956;2023-01-26T00:19:21;16.95;;;15.15;;
22046;SDS011;11187;49.412;20.956;2023-01-26T00:22:08;18.63;;;16.73;;
22046;SDS011;11187;49.412;20.956;2023-01-26T00:24:41;16.88;;;15.07;;
22046;SDS011;11187;49.412;20.956;2023-01-26T00:27:28;17.95;;;15.98;;
22046;SDS011;11187;49.412;20.956;2023-01-26T00:30:04;21.10;;;16.05;;
22046;SDS011;11187;49.412;20.956;2023-01-26T00:32:51;17.75;;;15.85;;
22046;SDS011;11187;49.412;20.956;2023-01-26T00:35:25;18.13;;;16.25;;
22046;SDS011;11187;49.412;20.956;2023-01-26T00:38:14;18.33;;;16.45;;
22046;SDS011;11187;49.412;20.956;2023-01-26T00:40:48;17.65;;;15.98;;
22046;SDS011;11187;49.412;20.956;2023-01-26T00:43:34;18.60;;;16.05;;
22046;SDS011;11187;49.412;20.956;2023-01-26T00:46:07;17.67;;;15.82;;
22046;SDS011;11187;49.412;20.956;2023-01-26T00:49:01;18.60;;;16.70;;
22046;SDS011;11187;49.412;20.956;2023-01-26T00:51:55;17.17;;;15.52;;
22046;SDS011;11187;49.412;20.956;2023-01-26T00:54:29;18.17;;;15.50;;
22046;SDS011;11187;49.412;20.956;2023-01-26T00:57:23;20.83;;;16.35;;
22046;SDS011;11187;49.412;20.956;2023-01-26T00:59:57;19.50;;;15.55;;
22046;SDS011;11187;49.412;20.956;2023-01-26T01:02:51;15.98;;;14.32;;
22046;SDS011;11187;49.412;20.956;2023-01-26T01:05:25;17.55;;;15.10;;
22046;SDS011;11187;49.412;20.956;2023-01-26T01:08:14;19.45;;;16.98;;
22046;SDS011;11187;49.412;20.956;2023-01-26T01:10:48;17.10;;;15.30;;
22046;SDS011;11187;49.412;20.956;2023-01-26T01:13:34;18.25;;;16.20;;
22046;SDS011;11187;49.412;20.956;2023-01-26T01:16:08;17.67;;;15.95;;
22046;SDS011;11187;49.412;20.956;2023-01-26T01:18:56;16.20;;;14.68;;
22046;SDS011;11187;49.412;20.956;2023-01-26T01:21:30;17.95;;;16.17;;
22046;SDS011;11187;49.412;20.956;2023-01-26T01:24:23;16.08;;;14.38;;
22046;SDS011;11187;49.412;20.956;2023-01-26T01:27:17;18.42;;;15.35;;
22046;SDS011;11187;49.412;20.956;2023-01-26T01:30:11;16.80;;;15.20;;
22046;SDS011;11187;49.412;20.956;2023-01-26T01:33:05;17.77;;;15.85;;
22046;SDS011;11187;49.412;20.956;2023-01-26T01:35:39;17.10;;;15.45;;
22046;SDS011;11187;49.412;20.956;2023-01-26T01:38:26;18.52;;;14.45;;
22046;SDS011;11187;49.412;20.956;2023-01-26T01:41:00;16.70;;;15.13;;
22046;SDS011;11187;49.412;20.956;2023-01-26T01:44:12;16.10;;;14.50;;
22046;SDS011;11187;49.412;20.956;2023-01-26T01:47:13;17.35;;;14.88;;
22046;SDS011;11187;49.412;20.956;2023-01-26T01:49:55;15.63;;;14.13;;
22046;SDS011;11187;49.412;20.956;2023-01-26T01:52:42;16.75;;;14.85;;
22046;SDS011;11187;49.412;20.956;2023-01-26T01:55:16;14.40;;;12.90;;
22046;SDS011;11187;49.412;20.956;2023-01-26T01:58:04;15.90;;;14.40;;
22046;SDS011;11187;49.412;20.956;2023-01-26T02:00:39;16.63;;;15.02;;
22046;SDS011;11187;49.412;20.956;2023-01-26T02:03:32;14.73;;;13.13;;
22046;SDS011;11187;49.412;20.956;2023-01-26T02:09:24;15.48;;;13.93;;
22046;SDS011;11187;49.412;20.956;2023-01-26T02:12:39;15.32;;;13.52;;
22046;SDS011;11187;49.412;20.956;2023-01-26T02:15:14;15.15;;;13.55;;
22046;SDS011;11187;49.412;20.956;2023-01-26T02:18:07;15.07;;;13.68;;
22046;SDS011;11187;49.412;20.956;2023-01-26T02:21:02;16.63;;;15.13;;
22046;SDS011;11187;49.412;20.956;2023-01-26T02:26:32;15.60;;;14.20;;
22046;SDS011;11187;49.412;20.956;2023-01-26T02:29:07;15.18;;;13.88;;
22046;SDS011;11187;49.412;20.956;2023-01-26T02:31:56;15.18;;;13.63;;
22046;SDS011;11187;49.412;20.956;2023-01-26T02:34:36;15.95;;;14.35;;
22046;SDS011;11187;49.412;20.956;2023-01-26T02:37:16;14.25;;;12.93;;
22046;SDS011;11187;49.412;20.956;2023-01-26T02:40:04;14.75;;;13.45;;
22046;SDS011;11187;49.412;20.956;2023-01-26T02:42:51;15.68;;;13.57;;
22046;SDS011;11187;49.412;20.956;2023-01-26T02:45:32;15.30;;;13.80;;
22046;SDS011;11187;49.412;20.956;2023-01-26T02:48:12;14.60;;;13.25;;
22046;SDS011;11187;49.412;20.956;2023-01-26T02:50:52;16.20;;;14.60;;
22046;SDS011;11187;49.412;20.956;2023-01-26T02:53:32;16.27;;;14.75;;
22046;SDS011;11187;49.412;20.956;2023-01-26T02:56:12;15.93;;;14.63;;
22046;SDS011;11187;49.412;20.956;2023-01-26T02:58:52;14.82;;;13.35;;
22046;SDS011;11187;49.412;20.956;2023-01-26T03:01:32;15.95;;;14.45;;
22046;SDS011;11187;49.412;20.956;2023-01-26T03:04:12;14.93;;;13.60;;
22046;SDS011;11187;49.412;20.956;2023-01-26T03:06:59;13.20;;;11.90;;
22046;SDS011;11187;49.412;20.956;2023-01-26T03:09:53;14.48;;;13.20;;
22046;SDS011;11187;49.412;20.956;2023-01-26T03:12:47;14.35;;;13.05;;
22046;SDS011;11187;49.412;20.956;2023-01-26T03:15:21;15.38;;;13.77;;
22046;SDS011;11187;49.412;20.956;2023-01-26T03:18:22;14.52;;;13.13;;
22046;SDS011;11187;49.412;20.956;2023-01-26T03:21:14;14.68;;;13.40;;
22046;SDS011;11187;49.412;20.956;2023-01-26T03:24:20;16.67;;;13.93;;
22046;SDS011;11187;49.412;20.956;2023-01-26T03:27:12;14.02;;;12.68;;
22046;SDS011;11187;49.412;20.956;2023-01-26T03:30:07;15.73;;;14.07;;
22046;SDS011;11187;49.412;20.956;2023-01-26T03:32:43;14.82;;;13.55;;
22046;SDS011;11187;49.412;20.956;2023-01-26T03:35:29;14.43;;;12.90;;
22046;SDS011;11187;49.412;20.956;2023-01-26T03:38:04;15.85;;;14.15;;
22046;SDS011;11187;49.412;20.956;2023-01-26T03:40:57;14.93;;;13.55;;
22046;SDS011;11187;49.412;20.956;2023-01-26T03:43:49;14.80;;;13.40;;
22046;SDS011;11187;49.412;20.956;2023-01-26T03:47:00;15.43;;;14.02;;
22046;SDS011;11187;49.412;20.956;2023-01-26T03:49:52;15.57;;;14.07;;
22046;SDS011;11187;49.412;20.956;2023-01-26T03:53:13;15.35;;;14.15;;
22046;SDS011;11187;49.412;20.956;2023-01-26T03:56:25;15.00;;;13.63;;
22046;SDS011;11187;49.412;20.956;2023-01-26T03:59:19;15.18;;;13.98;;
22046;SDS011;11187;49.412;20.956;2023-01-26T04:02:10;14.02;;;12.80;;
22046;SDS011;11187;49.412;20.956;2023-01-26T04:05:22;14.27;;;12.98;;
22046;SDS011;11187;49.412;20.956;2023-01-26T04:08:54;15.68;;;14.32;;
22046;SDS011;11187;49.412;20.956;2023-01-26T04:11:56;16.13;;;14.65;;
22046;SDS011;11187;49.412;20.956;2023-01-26T04:14:50;14.73;;;13.40;;
22046;SDS011;11187;49.412;20.956;2023-01-26T04:18:06;14.27;;;13.07;;
22046;SDS011;11187;49.412;20.956;2023-01-26T04:21:00;15.05;;;13.50;;
22046;SDS011;11187;49.412;20.956;2023-01-26T04:24:07;15.10;;;13.65;;
22046;SDS011;11187;49.412;20.956;2023-01-26T04:26:46;15.00;;;13.60;;
22046;SDS011;11187;49.412;20.956;2023-01-26T04:29:34;17.02;;;15.40;;
22046;SDS011;11187;49.412;20.956;2023-01-26T04:32:07;16.75;;;13.38;;
22046;SDS011;11187;49.412;20.956;2023-01-26T04:34:53;16.45;;;14.93;;
22046;SDS011;11187;49.412;20.956;2023-01-26T04:37:27;15.07;;;13.88;;
22046;SDS011;11187;49.412;20.956;2023-01-26T04:40:13;16.20;;;14.70;;
22046;SDS011;11187;49.412;20.956;2023-01-26T04:42:47;16.33;;;14.80;;
22046;SDS011;11187;49.412;20.956;2023-01-26T04:45:33;16.65;;;15.25;;
22046;SDS011;11187;49.412;20.956;2023-01-26T04:48:07;15.40;;;14.02;;
22046;SDS011;11187;49.412;20.956;2023-01-26T04:51:02;15.30;;;13.88;;
22046;SDS011;11187;49.412;20.956;2023-01-26T04:53:37;15.68;;;14.32;;
22046;SDS011;11187;49.412;20.956;2023-01-26T04:56:27;16.52;;;15.10;;
22046;SDS011;11187;49.412;20.956;2023-01-26T04:59:03;17.05;;;15.55;;
22046;SDS011;11187;49.412;20.956;2023-01-26T05:01:51;16.65;;;15.05;;
22046;SDS011;11187;49.412;20.956;2023-01-26T05:04:25;16.35;;;14.75;;
22046;SDS011;11187;49.412;20.956;2023-01-26T05:07:11;17.17;;;15.40;;
22046;SDS011;11187;49.412;20.956;2023-01-26T05:09:45;16.73;;;15.02;;
22046;SDS011;11187;49.412;20.956;2023-01-26T05:12:38;16.35;;;14.80;;
22046;SDS011;11187;49.412;20.956;2023-01-26T05:15:15;14.40;;;12.98;;
22046;SDS011;11187;49.412;20.956;2023-01-26T05:18:01;15.48;;;13.98;;
22046;SDS011;11187;49.412;20.956;2023-01-26T05:20:36;14.25;;;12.68;;
22046;SDS011;11187;49.412;20.956;2023-01-26T05:23:29;15.55;;;14.05;;
22046;SDS011;11187;49.412;20.956;2023-01-26T05:26:23;13.43;;;12.23;;
22046;SDS011;11187;49.412;20.956;2023-01-26T05:28:57;14.32;;;12.77;;
22046;SDS011;11187;49.412;20.956;2023-01-26T05:31:43;15.95;;;14.32;;
22046;SDS011;11187;49.412;20.956;2023-01-26T05:34:17;16.85;;;15.20;;
22046;SDS011;11187;49.412;20.956;2023-01-26T05:37:10;18.30;;;16.65;;
22046;SDS011;11187;49.412;20.956;2023-01-26T05:39:44;19.08;;;17.35;;
22046;SDS011;11187;49.412;20.956;2023-01-26T05:42:38;18.85;;;16.98;;
22046;SDS011;11187;49.412;20.956;2023-01-26T05:45:33;17.73;;;15.23;;
22046;SDS011;11187;49.412;20.956;2023-01-26T05:48:07;16.83;;;15.15;;
22046;SDS011;11187;49.412;20.956;2023-01-26T05:50:54;15.75;;;14.07;;
22046;SDS011;11187;49.412;20.956;2023-01-26T05:53:32;16.65;;;15.00;;
22046;SDS011;11187;49.412;20.956;2023-01-26T05:56:18;16.42;;;14.75;;
22046;SDS011;11187;49.412;20.956;2023-01-26T05:58:52;17.40;;;15.80;;
22046;SDS011;11187;49.412;20.956;2023-01-26T06:01:45;16.02;;;14.50;;
22046;SDS011;11187;49.412;20.956;2023-01-26T06:04:19;15.98;;;14.38;;
22046;SDS011;11187;49.412;20.956;2023-01-26T06:07:05;16.52;;;14.63;;
22046;SDS011;11187;49.412;20.956;2023-01-26T06:09:39;14.27;;;12.85;;
22046;SDS011;11187;49.412;20.956;2023-01-26T06:12:33;16.90;;;13.82;;
22046;SDS011;11187;49.412;20.956;2023-01-26T06:15:28;14.27;;;12.98;;
22046;SDS011;11187;49.412;20.956;2023-01-26T06:18:22;12.40;;;11.27;;
22046;SDS011;11187;49.412;20.956;2023-01-26T06:20:59;13.07;;;11.68;;
22046;SDS011;11187;49.412;20.956;2023-01-26T06:23:45;13.30;;;12.00;;
22046;SDS011;11187;49.412;20.956;2023-01-26T06:26:19;13.30;;;12.00;;
22046;SDS011;11187;49.412;20.956;2023-01-26T06:29:05;14.15;;;12.95;;
22046;SDS011;11187;49.412;20.956;2023-01-26T06:31:39;14.93;;;13.23;;
22046;SDS011;11187;49.412;20.956;2023-01-26T06:34:32;16.10;;;13.80;;
22046;SDS011;11187;49.412;20.956;2023-01-26T06:37:26;14.95;;;13.48;;
22046;SDS011;11187;49.412;20.956;2023-01-26T06:40:00;13.25;;;11.82;;
22046;SDS011;11187;49.412;20.956;2023-01-26T06:42:49;13.60;;;12.25;;
22046;SDS011;11187;49.412;20.956;2023-01-26T06:45:23;14.40;;;13.00;;
22046;SDS011;11187;49.412;20.956;2023-01-26T06:48:16;14.68;;;13.18;;
22046;SDS011;11187;49.412;20.956;2023-01-26T06:50:50;13.80;;;12.60;;
22046;SDS011;11187;49.412;20.956;2023-01-26T06:53:50;14.45;;;13.25;;
22046;SDS011;11187;49.412;20.956;2023-01-26T06:56:48;16.65;;;15.05;;
22046;SDS011;11187;49.412;20.956;2023-01-26T06:59:22;16.77;;;15.13;;
22046;SDS011;11187;49.412;20.956;2023-01-26T07:02:17;16.60;;;14.95;;
22046;SDS011;11187;49.412;20.956;2023-01-26T07:05:12;17.10;;;15.55;;
22046;SDS011;11187;49.412;20.956;2023-01-26T07:08:06;15.85;;;14.25;;
22046;SDS011;11187;49.412;20.956;2023-01-26T07:10:41;16.50;;;14.93;;
22046;SDS011;11187;49.412;20.956;2023-01-26T07:13:27;15.70;;;14.20;;
22046;SDS011;11187;49.412;20.956;2023-01-26T07:18:47;17.48;;;14.43;;
22046;SDS011;11187;49.412;20.956;2023-01-26T07:21:21;17.05;;;14.07;;
22046;SDS011;11187;49.412;20.956;2023-01-26T07:24:08;20.98;;;15.48;;
22046;SDS011;11187;49.412;20.956;2023-01-26T07:26:42;17.20;;;15.43;;
22046;SDS011;11187;49.412;20.956;2023-01-26T07:29:28;18.13;;;15.68;;
22046;SDS011;11187;49.412;20.956;2023-01-26T07:32:02;18.40;;;16.67;;
22046;SDS011;11187;49.412;20.956;2023-01-26T07:34:51;17.55;;;14.23;;
22046;SDS011;11187;49.412;20.956;2023-01-26T07:37:28;16.17;;;14.68;;
22046;SDS011;11187;49.412;20.956;2023-01-26T07:40:15;15.48;;;13.82;;
22046;SDS011;11187;49.412;20.956;2023-01-26T07:42:49;22.08;;;17.65;;
22046;SDS011;11187;49.412;20.956;2023-01-26T07:45:49;20.85;;;16.95;;
22046;SDS011;11187;49.412;20.956;2023-01-26T07:48:44;17.20;;;15.10;;
22046;SDS011;11187;49.412;20.956;2023-01-26T07:51:38;20.23;;;17.85;;
22046;SDS011;11187;49.412;20.956;2023-01-26T07:54:13;18.73;;;16.90;;
22046;SDS011;11187;49.412;20.956;2023-01-26T07:57:02;18.17;;;16.40;;
22046;SDS011;11187;49.412;20.956;2023-01-26T07:59:39;17.80;;;14.95;;
22046;SDS011;11187;49.412;20.956;2023-01-26T08:02:25;18.17;;;15.77;;
22046;SDS011;11187;49.412;20.956;2023-01-26T08:04:59;19.27;;;17.33;;
22046;SDS011;11187;49.412;20.956;2023-01-26T08:07:55;18.13;;;16.27;;
22046;SDS011;11187;49.412;20.956;2023-01-26T08:10:30;19.90;;;17.90;;
22046;SDS011;11187;49.412;20.956;2023-01-26T08:13:16;16.67;;;14.75;;
22046;SDS011;11187;49.412;20.956;2023-01-26T08:16:04;17.13;;;15.30;;
22046;SDS011;11187;49.412;20.956;2023-01-26T08:19:00;17.77;;;15.60;;
22046;SDS011;11187;49.412;20.956;2023-01-26T08:21:54;16.38;;;14.52;;
22046;SDS011;11187;49.412;20.956;2023-01-26T08:24:29;14.77;;;13.25;;
22046;SDS011;11187;49.412;20.956;2023-01-26T08:27:22;17.92;;;15.73;;
22046;SDS011;11187;49.412;20.956;2023-01-26T08:30:16;16.52;;;14.73;;
22046;SDS011;11187;49.412;20.956;2023-01-26T08:33:10;21.17;;;16.58;;
22046;SDS011;11187;49.412;20.956;2023-01-26T08:36:05;22.17;;;15.43;;
22046;SDS011;11187;49.412;20.956;2023-01-26T08:38:40;18.25;;;14.40;;
22046;SDS011;11187;49.412;20.956;2023-01-26T08:41:34;19.48;;;16.13;;
22046;SDS011;11187;49.412;20.956;2023-01-26T08:44:08;27.70;;;20.65;;
22046;SDS011;11187;49.412;20.956;2023-01-26T08:46:55;23.20;;;18.58;;
22046;SDS011;11187;49.412;20.956;2023-01-26T08:49:29;18.15;;;15.55;;
22046;SDS011;11187;49.412;20.956;2023-01-26T08:52:15;22.10;;;19.42;;
22046;SDS011;11187;49.412;20.956;2023-01-26T08:54:49;18.65;;;16.48;;
22046;SDS011;11187;49.412;20.956;2023-01-26T08:57:35;20.83;;;18.63;;
22046;SDS011;11187;49.412;20.956;2023-01-26T09:00:09;21.80;;;18.17;;
22046;SDS011;11187;49.412;20.956;2023-01-26T09:02:57;22.27;;;17.60;;
22046;SDS011;11187;49.412;20.956;2023-01-26T09:05:35;20.30;;;16.55;;
22046;SDS011;11187;49.412;20.956;2023-01-26T09:08:31;16.90;;;15.20;;
22046;SDS011;11187;49.412;20.956;2023-01-26T09:11:24;19.45;;;15.55;;
22046;SDS011;11187;49.412;20.956;2023-01-26T09:14:18;19.42;;;14.23;;
22046;SDS011;11187;49.412;20.956;2023-01-26T09:16:52;20.42;;;16.40;;
22046;SDS011;11187;49.412;20.956;2023-01-26T09:19:38;21.00;;;15.50;;
22046;SDS011;11187;49.412;20.956;2023-01-26T09:22:12;19.92;;;17.95;;
22046;SDS011;11187;49.412;20.956;2023-01-26T09:24:58;23.05;;;20.80;;
22046;SDS011;11187;49.412;20.956;2023-01-26T09:27:32;19.67;;;15.85;;
22046;SDS011;11187;49.412;20.956;2023-01-26T09:30:21;16.58;;;14.85;;
22046;SDS011;11187;49.412;20.956;2023-01-26T09:32:57;16.15;;;14.07;;
22046;SDS011;11187;49.412;20.956;2023-01-26T09:35:52;16.17;;;14.48;;
22046;SDS011;11187;49.412;20.956;2023-01-26T09:38:46;17.70;;;15.88;;
22046;SDS011;11187;49.412;20.956;2023-01-26T09:51:27;18.00;;;15.30;;
22046;SDS011;11187;49.412;20.956;2023-01-26T09:54:02;17.70;;;14.43;;
22046;SDS011;11187;49.412;20.956;2023-01-26T09:57:15;21.13;;;15.98;;
22046;SDS011;11187;49.412;20.956;2023-01-26T10:02:53;18.15;;;16.23;;
22046;SDS011;11187;49.412;20.956;2023-01-26T10:06:02;17.05;;;15.38;;
22046;SDS011;11187;49.412;20.956;2023-01-26T10:08:56;18.70;;;15.68;;
22046;SDS011;11187;49.412;20.956;2023-01-26T10:11:55;15.27;;;13.20;;
22046;SDS011;11187;49.412;20.956;2023-01-26T10:18:18;18.45;;;14.93;;
22046;SDS011;11187;49.412;20.956;2023-01-26T10:21:17;14.70;;;13.20;;
22046;SDS011;11187;49.412;20.956;2023-01-26T10:23:54;16.88;;;14.25;;
22046;SDS011;11187;49.412;20.956;2023-01-26T10:26:52;16.35;;;14.57;;
22046;SDS011;11187;49.412;20.956;2023-01-26T10:29:30;18.23;;;14.63;;
22046;SDS011;11187;49.412;20.956;2023-01-26T10:32:17;17.20;;;15.02;;
22046;SDS011;11187;49.412;20.956;2023-01-26T10:34:53;17.77;;;15.30;;
22046;SDS011;11187;49.412;20.956;2023-01-26T10:37:39;15.80;;;13.55;;
22046;SDS011;11187;49.412;20.956;2023-01-26T10:40:13;19.40;;;17.48;;
22046;SDS011;11187;49.412;20.956;2023-01-26T10:43:00;16.77;;;15.05;;
22046;SDS011;11187;49.412;20.956;2023-01-26T10:45:43;18.80;;;16.77;;
22046;SDS011;11187;49.412;20.956;2023-01-26T10:48:30;15.35;;;13.80;;
22046;SDS011;11187;49.412;20.956;2023-01-26T10:51:14;19.77;;;15.75;;
22046;SDS011;11187;49.412;20.956;2023-01-26T10:56:59;17.90;;;15.98;;
22046;SDS011;11187;49.412;20.956;2023-01-26T10:59:55;16.42;;;14.75;;
22046;SDS011;11187;49.412;20.956;2023-01-26T11:02:58;16.73;;;15.02;;
22046;SDS011;11187;49.412;20.956;2023-01-26T11:06:15;15.65;;;13.80;;
22046;SDS011;11187;49.412;20.956;2023-01-26T11:08:50;22.42;;;17.45;;
22046;SDS011;11187;49.412;20.956;2023-01-26T11:11:37;36.20;;;23.48;;
22046;SDS011;11187;49.412;20.956;2023-01-26T11:14:17;25.88;;;18.65;;
22046;SDS011;11187;49.412;20.956;2023-01-26T11:17:10;27.40;;;18.10;;
22046;SDS011;11187;49.412;20.956;2023-01-26T11:22:55;18.65;;;14.93;;
22046;SDS011;11187;49.412;20.956;2023-01-26T11:31:38;18.33;;;14.95;;
22046;SDS011;11187;49.412;20.956;2023-01-26T11:46:20;17.45;;;14.85;;
22046;SDS011;11187;49.412;20.956;2023-01-26T11:52:40;22.45;;;20.25;;
22046;SDS011;11187;49.412;20.956;2023-01-26T11:55:47;17.60;;;15.82;;
22046;SDS011;11187;49.412;20.956;2023-01-26T12:01:28;17.02;;;15.23;;
22046;SDS011;11187;49.412;20.956;2023-01-26T12:04:08;19.98;;;15.80;;
22046;SDS011;11187;49.412;20.956;2023-01-26T12:07:11;18.08;;;16.23;;
22046;SDS011;11187;49.412;20.956;2023-01-26T12:09:59;18.20;;;14.90;;
22046;SDS011;11187;49.412;20.956;2023-01-26T12:13:00;18.20;;;15.77;;
22046;SDS011;11187;49.412;20.956;2023-01-26T12:15:46;21.02;;;18.90;;
22046;SDS011;11187;49.412;20.956;2023-01-26T12:18:45;19.00;;;17.10;;
22046;SDS011;11187;49.412;20.956;2023-01-26T12:21:36;17.48;;;15.65;;
22046;SDS011;11187;49.412;20.956;2023-01-26T12:24:33;21.63;;;16.88;;
22046;SDS011;11187;49.412;20.956;2023-01-26T12:27:32;18.70;;;16.73;;
22046;SDS011;11187;49.412;20.956;2023-01-26T12:33:10;19.73;;;17.60;;
22046;SDS011;11187;49.412;20.956;2023-01-26T12:47:55;17.20;;;15.40;;
22046;SDS011;11187;49.412;20.956;2023-01-26T12:50:44;24.60;;;17.58;;
22046;SDS011;11187;49.412;20.956;2023-01-26T12:56:18;27.10;;;18.98;;
22046;SDS011;11187;49.412;20.956;2023-01-26T12:59:38;26.20;;;18.73;;
22046;SDS011;11187;49.412;20.956;2023-01-26T13:02:20;17.20;;;15.30;;
22046;SDS011;11187;49.412;20.956;2023-01-26T13:05:27;18.30;;;16.08;;
22046;SDS011;11187;49.412;20.956;2023-01-26T13:11:04;19.75;;;15.55;;
22046;SDS011;11187;49.412;20.956;2023-01-26T13:13:54;18.48;;;15.20;;
22046;SDS011;11187;49.412;20.956;2023-01-26T13:19:34;24.20;;;15.27;;
22046;SDS011;11187;49.412;20.956;2023-01-26T13:25:46;21.45;;;15.52;;
22046;SDS011;11187;49.412;20.956;2023-01-26T13:28:10;20.33;;;17.38;;
22046;SDS011;11187;49.412;20.956;2023-01-26T13:31:05;21.55;;;17.10;;
22046;SDS011;11187;49.412;20.956;2023-01-26T13:33:39;26.55;;;16.13;;
22046;SDS011;11187;49.412;20.956;2023-01-26T13:36:28;20.13;;;15.95;;
22046;SDS011;11187;49.412;20.956;2023-01-26T13:39:17;21.77;;;15.35;;
22046;SDS011;11187;49.412;20.956;2023-01-26T13:42:16;25.08;;;17.55;;
22046;SDS011;11187;49.412;20.956;2023-01-26T13:45:31;22.75;;;17.67;;
22046;SDS011;11187;49.412;20.956;2023-01-26T13:51:33;25.90;;;17.60;;
22046;SDS011;11187;49.412;20.956;2023-01-26T13:54:10;28.98;;;19.08;;
22046;SDS011;11187;49.412;20.956;2023-01-26T13:57:03;23.13;;;16.70;;
22046;SDS011;11187;49.412;20.956;2023-01-26T13:59:48;22.20;;;17.00;;
22046;SDS011;11187;49.412;20.956;2023-01-26T14:02:37;31.50;;;19.20;;
22046;SDS011;11187;49.412;20.956;2023-01-26T14:05:19;25.55;;;18.88;;
22046;SDS011;11187;49.412;20.956;2023-01-26T14:08:10;23.90;;;17.52;;
22046;SDS011;11187;49.412;20.956;2023-01-26T14:10:48;27.02;;;18.77;;
22046;SDS011;11187;49.412;20.956;2023-01-26T14:13:42;21.02;;;16.83;;
22046;SDS011;11187;49.412;20.956;2023-01-26T14:16:23;22.85;;;18.35;;
22046;SDS011;11187;49.412;20.956;2023-01-26T14:19:21;25.52;;;18.77;;
22046;SDS011;11187;49.412;20.956;2023-01-26T14:22:15;20.98;;;18.70;;
22046;SDS011;11187;49.412;20.956;2023-01-26T14:25:09;21.92;;;17.83;;
22046;SDS011;11187;49.412;20.956;2023-01-26T14:28:03;19.20;;;16.25;;
22046;SDS011;11187;49.412;20.956;2023-01-26T14:30:38;16.45;;;14.05;;
22046;SDS011;11187;49.412;20.956;2023-01-26T14:33:32;18.63;;;14.98;;
22046;SDS011;11187;49.412;20.956;2023-01-26T14:36:27;17.90;;;16.00;;
22046;SDS011;11187;49.412;20.956;2023-01-26T14:39:20;22.00;;;17.95;;
22046;SDS011;11187;49.412;20.956;2023-01-26T14:42:18;22.77;;;17.50;;
22046;SDS011;11187;49.412;20.956;2023-01-26T14:44:52;25.33;;;20.73;;
22046;SDS011;11187;49.412;20.956;2023-01-26T14:47:39;27.80;;;19.65;;
22046;SDS011;11187;49.412;20.956;2023-01-26T14:50:16;25.33;;;20.80;;
22046;SDS011;11187;49.412;20.956;2023-01-26T14:53:29;19.13;;;17.15;;
22046;SDS011;11187;49.412;20.956;2023-01-26T14:56:02;18.40;;;16.55;;
22046;SDS011;11187;49.412;20.956;2023-01-26T14:58:55;18.48;;;14.88;;
22046;SDS011;11187;49.412;20.956;2023-01-26T15:01:29;18.83;;;16.83;;
22046;SDS011;11187;49.412;20.956;2023-01-26T15:04:25;16.45;;;14.57;;
22046;SDS011;11187;49.412;20.956;2023-01-26T15:16:03;19.73;;;16.00;;
22046;SDS011;11187;49.412;20.956;2023-01-26T15:18:40;20.70;;;16.27;;
22046;SDS011;11187;49.412;20.956;2023-01-26T15:21:37;23.63;;;17.88;;
22046;SDS011;11187;49.412;20.956;2023-01-26T15:24:32;22.65;;;17.13;;
22046;SDS011;11187;49.412;20.956;2023-01-26T15:27:06;25.00;;;18.23;;
22046;SDS011;11187;49.412;20.956;2023-01-26T15:29:56;23.27;;;18.23;;
22046;SDS011;11187;49.412;20.956;2023-01-26T15:32:37;28.15;;;18.33;;
22046;SDS011;11187;49.412;20.956;2023-01-26T15:35:32;19.70;;;17.27;;
22046;SDS011;11187;49.412;20.956;2023-01-26T15:38:26;22.52;;;18.17;;
22046;SDS011;11187;49.412;20.956;2023-01-26T15:41:20;27.55;;;20.13;;
22046;SDS011;11187;49.412;20.956;2023-01-26T15:44:15;29.63;;;18.65;;
22046;SDS011;11187;49.412;20.956;2023-01-26T15:46:50;19.50;;;16.80;;
22046;SDS011;11187;49.412;20.956;2023-01-26T15:49:39;34.46;;;20.86;;
22046;SDS011;11187;49.412;20.956;2023-01-26T15:52:14;40.97;;;23.83;;
22046;SDS011;11187;49.412;20.956;2023-01-26T15:55:11;28.13;;;20.55;;
22046;SDS011;11187;49.412;20.956;2023-01-26T15:57:57;21.88;;;16.50;;
22046;SDS011;11187;49.412;20.956;2023-01-26T16:00:44;24.23;;;19.83;;
22046;SDS011;11187;49.412;20.956;2023-01-26T16:03:18;27.95;;;18.38;;
22046;SDS011;11187;49.412;20.956;2023-01-26T16:06:11;21.23;;;17.98;;
22046;SDS011;11187;49.412;20.956;2023-01-26T16:08:52;19.85;;;17.75;;
22046;SDS011;11187;49.412;20.956;2023-01-26T16:11:43;22.95;;;17.67;;
22046;SDS011;11187;49.412;20.956;2023-01-26T16:14:20;21.63;;;17.88;;
22046;SDS011;11187;49.412;20.956;2023-01-26T16:17:14;21.55;;;16.50;;
22046;SDS011;11187;49.412;20.956;2023-01-26T16:20:11;29.70;;;20.08;;
22046;SDS011;11187;49.412;20.956;2023-01-26T16:22:44;25.65;;;19.48;;
22046;SDS011;11187;49.412;20.956;2023-01-26T16:25:31;26.48;;;18.27;;
22046;SDS011;11187;49.412;20.956;2023-01-26T16:28:05;32.13;;;21.02;;
22046;SDS011;11187;49.412;20.956;2023-01-26T16:30:51;26.65;;;19.67;;
22046;SDS011;11187;49.412;20.956;2023-01-26T16:33:27;31.50;;;19.52;;
22046;SDS011;11187;49.412;20.956;2023-01-26T16:36:15;27.52;;;19.92;;
22046;SDS011;11187;49.412;20.956;2023-01-26T16:38:50;30.13;;;20.77;;
22046;SDS011;11187;49.412;20.956;2023-01-26T16:41:43;28.52;;;20.25;;
22046;SDS011;11187;49.412;20.956;2023-01-26T16:44:38;28.58;;;19.15;;
22046;SDS011;11187;49.412;20.956;2023-01-26T16:47:11;34.67;;;20.45;;
22046;SDS011;11187;49.412;20.956;2023-01-26T16:49:58;33.72;;;21.13;;
22046;SDS011;11187;49.412;20.956;2023-01-26T16:52:32;31.27;;;20.08;;
22046;SDS011;11187;49.412;20.956;2023-01-26T16:55:19;32.88;;;21.05;;
22046;SDS011;11187;49.412;20.956;2023-01-26T16:57:53;27.70;;;21.80;;
22046;SDS011;11187;49.412;20.956;2023-01-26T17:00:39;23.70;;;19.58;;
22046;SDS011;11187;49.412;20.956;2023-01-26T17:03:13;31.23;;;19.45;;
22046;SDS011;11187;49.412;20.956;2023-01-26T17:05:59;37.22;;;20.13;;
22046;SDS011;11187;49.412;20.956;2023-01-26T17:08:33;31.00;;;18.95;;
22046;SDS011;11187;49.412;20.956;2023-01-26T17:11:21;28.52;;;20.48;;
22046;SDS011;11187;49.412;20.956;2023-01-26T17:13:56;30.08;;;20.05;;
22046;SDS011;11187;49.412;20.956;2023-01-26T17:16:49;24.63;;;18.67;;
22046;SDS011;11187;49.412;20.956;2023-01-26T17:19:43;25.17;;;18.92;;
22046;SDS011;11187;49.412;20.956;2023-01-26T17:22:57;27.30;;;18.52;;
22046;SDS011;11187;49.412;20.956;2023-01-26T17:25:30;25.88;;;18.80;;
22046;SDS011;11187;49.412;20.956;2023-01-26T17:28:16;27.88;;;18.15;;
22046;SDS011;11187;49.412;20.956;2023-01-26T17:30:50;34.38;;;20.15;;
22046;SDS011;11187;49.412;20.956;2023-01-26T17:33:39;28.73;;;19.75;;